Time;durP1;ratioP1;P1;durP2;ratioP2;P2;SDS_P1;SDS_P2;PMS_P1;PMS_P2;Temp;Humidity;BMP_temperature;BMP_pressure;BME280_temperature;BME280_humidity;BME280_pressure;Samples;Min_cycle;Max_cycle;Signal;HPM_P1;HPM_P2
2023/12/04 00:02:20;;;;;;;;;;;;;;;;;;5023122;28;20318;-71
2023/12/04 00:04:46;;;;;;;;;;;;;;;;;;5024177;28;19921;-72
2023/12/04 00:07:13;;;;;;;;;;;;;;;;;;5024186;28;19921;-72
2023/12/04 00:09:39;;;;;;;;;;;;;;;;;;5026526;28;20004;-72
2023/12/04 00:12:05;;;;;;;;;;;;;;;;;;5023169;28;19925;-72
2023/12/04 00:14:31;;;;;;;;;;;;;;;;;;5023233;28;20332;-73
2023/12/04 00:16:58;;;;;;;;;;;;;;;;;;5024563;28;19928;-72
2023/12/04 00:19:24;;;;;;;;;;;;;;;;;;5024052;28;19925;-72
2023/12/04 00:21:50;;;;;;;;;;;;;;;;;;5030478;28;19925;-72
2023/12/04 00:24:16;;;;;;;;;;;;;;;;;;5033718;28;19925;-72
2023/12/04 00:26:43;;;;;;;;;;;;;;;;;;5034248;28;19920;-72
2023/12/04 00:29:09;;;;;;;;;;;;;;;;;;5034089;28;19929;-72
2023/12/04 00:31:35;;;;;;;;;;;;;;;;;;5041157;28;19925;-72
2023/12/04 00:34:01;;;;;;;;;;;;;;;;;;5033851;28;19921;-72
2023/12/04 00:36:28;;;;;;;;;;;;;;;;;;5032932;28;19921;-72
2023/12/04 00:38:54;;;;;;;;;;;;;;;;;;5033566;28;20370;-72
2023/12/04 00:41:20;;;;;;;;;;;;;;;;;;5041220;28;20336;-72
2023/12/04 00:43:46;;;;;;;;;;;;;;;;;;5033686;28;19921;-71
2023/12/04 00:46:13;;;;;;;;;;;;;;;;;;5033692;28;19976;-73
2023/12/04 00:48:39;;;;;;;;;;;;;;;;;;5033124;28;19971;-72
2023/12/04 00:51:05;;;;;;;;;;;;;;;;;;5037740;28;19928;-72
2023/12/04 00:53:31;;;;;;;;;;;;;;;;;;5033464;28;19925;-72
2023/12/04 00:55:58;;;;;;;;;;;;;;;;;;5033518;28;19971;-73
2023/12/04 00:58:24;;;;;;;;;;;;;;;;;;5033483;28;19925;-72
2023/12/04 01:00:52;;;;;;;;;;;;;;;;;;5033486;28;20381;-74
2023/12/04 01:03:18;;;;;;;;;;;;;;;;;;5040821;28;19921;-73
2023/12/04 01:05:44;;;;;;;;;;;;;;;;;;5033151;28;19921;-73
2023/12/04 01:08:10;;;;;;;;;;;;;;;;;;5033188;28;19979;-72
2023/12/04 01:10:37;;;;;;;;;;;;;;;;;;5031913;28;20458;-73
2023/12/04 01:13:03;;;;;;;;;;;;;;;;;;5040259;28;19929;-74
2023/12/04 01:15:29;;;;;;;;;;;;;;;;;;5033166;28;19987;-73
2023/12/04 01:17:56;;;;;;;;;;;;;;;;;;5032988;28;19921;-73
2023/12/04 01:20:22;;;;;;;;;;;;;;;;;;5033028;28;19925;-73
2023/12/04 01:22:49;;;;;;;;;;;;;;;;;;5040369;28;19920;-73
2023/12/04 01:25:15;;;;;;;;;;;;;;;;;;5032427;28;19925;-73
2023/12/04 01:27:41;;;;;;;;;;;;;;;;;;5031913;28;19921;-73
2023/12/04 01:30:08;;;;;;;;;;;;;;;;;;5032790;28;19921;-72
2023/12/04 01:32:34;;;;;;;;;;;;;;;;;;5036026;28;19970;-72
2023/12/04 01:35:01;;;;;;;;;;;;;;;;;;5036547;28;19921;-72
2023/12/04 01:37:27;;;;;;;;;;;;;;;;;;5032884;28;20377;-73
2023/12/04 01:39:53;;;;;;;;;;;;;;;;;;5032301;28;19921;-72
2023/12/04 01:42:20;;;;;;;;;;;;;;;;;;5032596;28;19936;-73
2023/12/04 01:44:46;;;;;;;;;;;;;;;;;;5033624;28;20279;-72
2023/12/04 01:47:12;;;;;;;;;;;;;;;;;;5012669;28;19926;-72
2023/12/04 01:49:38;;;;;;;;;;;;;;;;;;5012904;28;19925;-72
2023/12/04 01:52:05;;;;;;;;;;;;;;;;;;5012595;28;19951;-72
2023/12/04 01:54:31;;;;;;;;;;;;;;;;;;5033554;28;20350;-72
2023/12/04 01:56:57;;;;;;;;;;;;;;;;;;5017957;28;19921;-72
2023/12/04 01:59:23;;;;;;;;;;;;;;;;;;5011832;28;19976;-72
2023/12/04 02:01:50;;;;;;;;;;;;;;;;;;5028141;28;19956;-73
2023/12/04 02:04:16;;;;;;;;;;;;;;;;;;5039436;28;19944;-73
2023/12/04 02:06:42;;;;;;;;;;;;;;;;;;5032209;28;19925;-74
2023/12/04 02:09:12;;;;;;;;;;;;;;;;;;5031903;28;19921;-73
2023/12/04 02:11:38;;;;;;;;;;;;;;;;;;5032124;28;19975;-73
2023/12/04 02:14:05;;;;;;;;;;;;;;;;;;5034678;28;19936;-73
2023/12/04 02:16:31;;;;;;;;;;;;;;;;;;5035268;28;19921;-73
2023/12/04 02:18:58;;;;;;;;;;;;;;;;;;5032047;28;19925;-73
2023/12/04 02:21:24;;;;;;;;;;;;;;;;;;5032127;28;19925;-73
2023/12/04 02:23:50;;;;;;;;;;;;;;;;;;5032104;28;20382;-73
2023/12/04 02:26:16;;;;;;;;;;;;;;;;;;5039170;28;19921;-73
2023/12/04 02:28:43;;;;;;;;;;;;;;;;;;5031850;28;20008;-73
2023/12/04 02:31:09;;;;;;;;;;;;;;;;;;5031880;28;19921;-73
2023/12/04 02:33:35;;;;;;;;;;;;;;;;;;5030462;28;20348;-73
2023/12/04 02:36:01;;;;;;;;;;;;;;;;;;5039227;28;19921;-73
2023/12/04 02:38:28;;;;;;;;;;;;;;;;;;5031723;28;19925;-73
2023/12/04 02:40:54;;;;;;;;;;;;;;;;;;5031694;28;19975;-72
2023/12/04 02:43:20;;;;;;;;;;;;;;;;;;5031716;28;20369;-73
2023/12/04 02:45:46;;;;;;;;;;;;;;;;;;5038792;28;20528;-72
2023/12/04 02:48:13;;;;;;;;;;;;;;;;;;5030487;28;19968;-72
2023/12/04 02:50:39;;;;;;;;;;;;;;;;;;5024433;28;19921;-72
2023/12/04 02:53:05;;;;;;;;;;;;;;;;;;5011914;28;19979;-72
2023/12/04 02:55:31;;;;;;;;;;;;;;;;;;5015537;28;20337;-73
2023/12/04 02:57:58;;;;;;;;;;;;;;;;;;5036625;28;19920;-71
2023/12/04 03:00:24;;;;;;;;;;;;;;;;;;5031575;28;19921;-71
2023/12/04 03:02:50;;;;;;;;;;;;;;;;;;5030286;28;19983;-71
2023/12/04 03:05:16;;;;;;;;;;;;;;;;;;5031423;28;20005;-72
2023/12/04 03:07:43;;;;;;;;;;;;;;;;;;5038746;28;20254;-71
2023/12/04 03:10:09;;;;;;;;;;;;;;;;;;5031186;28;19921;-71
2023/12/04 03:12:35;;;;;;;;;;;;;;;;;;5034692;28;19929;-72
2023/12/04 03:15:01;;;;;;;;;;;;;;;;;;5035395;28;20369;-71
2023/12/04 03:17:28;;;;;;;;;;;;;;;;;;5042735;28;19983;-71
2023/12/04 03:19:54;;;;;;;;;;;;;;;;;;5033932;28;19920;-71
2023/12/04 03:22:20;;;;;;;;;;;;;;;;;;5035224;28;20463;-71
2023/12/04 03:24:46;;;;;;;;;;;;;;;;;;5035411;28;19920;-71
2023/12/04 03:27:13;;;;;;;;;;;;;;;;;;5040570;28;19921;-71
2023/12/04 03:29:39;;;;;;;;;;;;;;;;;;5036639;28;19921;-71
2023/12/04 03:32:05;;;;;;;;;;;;;;;;;;5035029;28;20420;-71
2023/12/04 03:34:31;;;;;;;;;;;;;;;;;;5035005;28;19925;-71
2023/12/04 03:36:58;;;;;;;;;;;;;;;;;;5034379;28;19955;-70
2023/12/04 03:39:24;;;;;;;;;;;;;;;;;;5027935;28;19928;-71
2023/12/04 03:41:50;;;;;;;;;;;;;;;;;;5034822;28;20447;-71
2023/12/04 03:44:16;;;;;;;;;;;;;;;;;;5034785;28;20344;-71
2023/12/04 03:46:43;;;;;;;;;;;;;;;;;;5034924;28;19955;-71
2023/12/04 03:49:09;;;;;;;;;;;;;;;;;;5041768;28;19925;-72
2023/12/04 03:51:35;;;;;;;;;;;;;;;;;;5033657;28;20432;-71
2023/12/04 03:54:01;;;;;;;;;;;;;;;;;;5034359;28;19925;-71
2023/12/04 03:56:28;;;;;;;;;;;;;;;;;;5034769;28;19921;-71
2023/12/04 03:58:54;;;;;;;;;;;;;;;;;;5041762;28;19947;-71
2023/12/04 04:01:20;;;;;;;;;;;;;;;;;;5034062;28;20467;-72
2023/12/04 04:03:46;;;;;;;;;;;;;;;;;;5034386;28;19991;-72
2023/12/04 04:06:13;;;;;;;;;;;;;;;;;;5034356;28;19928;-71
2023/12/04 04:08:39;;;;;;;;;;;;;;;;;;5037691;28;20452;-71
2023/12/04 04:11:05;;;;;;;;;;;;;;;;;;5037046;28;19924;-71
2023/12/04 04:13:32;;;;;;;;;;;;;;;;;;5034333;28;19920;-71
2023/12/04 04:15:58;;;;;;;;;;;;;;;;;;5034310;28;19928;-71
2023/12/04 04:18:24;;;;;;;;;;;;;;;;;;5034111;28;20457;-71
2023/12/04 04:20:50;;;;;;;;;;;;;;;;;;5033821;28;19932;-71
2023/12/04 04:23:17;;;;;;;;;;;;;;;;;;5033084;28;19925;-71
2023/12/04 04:25:43;;;;;;;;;;;;;;;;;;5033016;28;19921;-71
2023/12/04 04:28:09;;;;;;;;;;;;;;;;;;5034069;28;19999;-71
2023/12/04 04:30:35;;;;;;;;;;;;;;;;;;5041454;28;19925;-71
2023/12/04 04:33:04;;;;;;;;;;;;;;;;;;5033674;28;19983;-71
2023/12/04 04:35:30;;;;;;;;;;;;;;;;;;5033946;28;19971;-71
2023/12/04 04:37:56;;;;;;;;;;;;;;;;;;5033821;28;20558;-71
2023/12/04 04:40:23;;;;;;;;;;;;;;;;;;5041158;28;19925;-71
2023/12/04 04:42:49;;;;;;;;;;;;;;;;;;5032436;28;19921;-71
2023/12/04 04:45:15;;;;;;;;;;;;;;;;;;5033731;28;20302;-71
2023/12/04 04:47:41;;;;;;;;;;;;;;;;;;5033819;28;19925;-72
2023/12/04 04:50:08;;;;;;;;;;;;;;;;;;5037249;28;19921;-71
2023/12/04 04:52:34;;;;;;;;;;;;;;;;;;5036897;28;19925;-71
2023/12/04 04:55:00;;;;;;;;;;;;;;;;;;5033622;28;19990;-71
2023/12/04 04:57:26;;;;;;;;;;;;;;;;;;5033548;28;19975;-71
2023/12/04 04:59:53;;;;;;;;;;;;;;;;;;5032100;28;20400;-71
2023/12/04 05:02:19;;;;;;;;;;;;;;;;;;5040642;28;19928;-72
2023/12/04 05:04:45;;;;;;;;;;;;;;;;;;5032368;28;20377;-71
2023/12/04 05:07:12;;;;;;;;;;;;;;;;;;5033199;28;19991;-71
2023/12/04 05:09:38;;;;;;;;;;;;;;;;;;5033051;28;19921;-71
2023/12/04 05:12:05;;;;;;;;;;;;;;;;;;5040427;28;19951;-71
2023/12/04 05:14:31;;;;;;;;;;;;;;;;;;5032982;28;20435;-71
2023/12/04 05:16:57;;;;;;;;;;;;;;;;;;5033250;28;19925;-71
2023/12/04 05:19:23;;;;;;;;;;;;;;;;;;5033013;28;19921;-71
2023/12/04 05:21:50;;;;;;;;;;;;;;;;;;5039249;28;19940;-71
2023/12/04 05:24:16;;;;;;;;;;;;;;;;;;5032696;28;19921;-71
2023/12/04 05:26:42;;;;;;;;;;;;;;;;;;5033038;28;20046;-72
2023/12/04 05:29:08;;;;;;;;;;;;;;;;;;5032812;28;19925;-72
2023/12/04 05:31:35;;;;;;;;;;;;;;;;;;5035569;28;20047;-72
2023/12/04 05:34:01;;;;;;;;;;;;;;;;;;5036987;28;19971;-72
2023/12/04 05:36:27;;;;;;;;;;;;;;;;;;5031607;28;20409;-72
2023/12/04 05:38:54;;;;;;;;;;;;;;;;;;5013017;28;19966;-73
2023/12/04 05:41:20;;;;;;;;;;;;;;;;;;5012903;28;19925;-72
2023/12/04 05:43:46;;;;;;;;;;;;;;;;;;5038182;28;19967;-72
2023/12/04 05:46:13;;;;;;;;;;;;;;;;;;5032256;28;20360;-72
2023/12/04 05:48:39;;;;;;;;;;;;;;;;;;5021499;28;19921;-72
2023/12/04 05:51:05;;;;;;;;;;;;;;;;;;5012518;28;19922;-72
2023/12/04 05:53:31;;;;;;;;;;;;;;;;;;5033185;28;19987;-72
2023/12/04 05:55:58;;;;;;;;;;;;;;;;;;5030977;28;19921;-72
2023/12/04 05:58:24;;;;;;;;;;;;;;;;;;5032182;28;19928;-72
2023/12/04 06:00:50;;;;;;;;;;;;;;;;;;5012312;28;19921;-73
2023/12/04 06:03:17;;;;;;;;;;;;;;;;;;5026770;28;20058;-72
2023/12/04 06:05:43;;;;;;;;;;;;;;;;;;5030934;28;20440;-72
2023/12/04 06:08:09;;;;;;;;;;;;;;;;;;5031894;28;19929;-72
2023/12/04 06:10:35;;;;;;;;;;;;;;;;;;5031904;28;19928;-72
2023/12/04 06:13:02;;;;;;;;;;;;;;;;;;5033478;28;19940;-72
2023/12/04 06:15:28;;;;;;;;;;;;;;;;;;5037162;28;19925;-72
2023/12/04 06:17:54;;;;;;;;;;;;;;;;;;5031657;28;20642;-71
2023/12/04 06:20:20;;;;;;;;;;;;;;;;;;5031652;28;19935;-72
2023/12/04 06:22:47;;;;;;;;;;;;;;;;;;5030560;28;20286;-71
2023/12/04 06:25:13;;;;;;;;;;;;;;;;;;5038742;28;19921;-70
2023/12/04 06:27:39;;;;;;;;;;;;;;;;;;5031601;28;19987;-70
2023/12/04 06:30:06;;;;;;;;;;;;;;;;;;5010642;28;20303;-71
2023/12/04 06:32:32;;;;;;;;;;;;;;;;;;5030317;28;19921;-71
2023/12/04 06:34:59;;;;;;;;;;;;;;;;;;5038944;28;19921;-70
2023/12/04 06:37:25;;;;;;;;;;;;;;;;;;5031223;28;19925;-72
2023/12/04 06:39:51;;;;;;;;;;;;;;;;;;5031204;28;19928;-70
2023/12/04 06:42:17;;;;;;;;;;;;;;;;;;5031198;28;19921;-71
2023/12/04 06:44:44;;;;;;;;;;;;;;;;;;5021196;28;19983;-70
2023/12/04 06:47:10;;;;;;;;;;;;;;;;;;5014557;28;19979;-70
2023/12/04 06:49:36;;;;;;;;;;;;;;;;;;5019148;28;20382;-71
2023/12/04 06:52:03;;;;;;;;;;;;;;;;;;5011689;28;19921;-71
2023/12/04 06:54:29;;;;;;;;;;;;;;;;;;5012722;28;19976;-70
2023/12/04 06:56:56;;;;;;;;;;;;;;;;;;5023044;28;19925;-70
2023/12/04 06:59:22;;;;;;;;;;;;;;;;;;5016586;28;20363;-71
2023/12/04 07:01:48;;;;;;;;;;;;;;;;;;5030992;28;19921;-71
2023/12/04 07:04:20;;;;;;;;;;;;;;;;;;5024268;28;20003;-71
2023/12/04 07:06:46;;;;;;;;;;;;;;;;;;5021893;28;19948;-70
2023/12/04 07:09:13;;;;;;;;;;;;;;;;;;5016309;28;19972;-71
2023/12/04 07:11:39;;;;;;;;;;;;;;;;;;5020046;28;20476;-71
2023/12/04 07:14:05;;;;;;;;;;;;;;;;;;5027258;28;19932;-71
2023/12/04 07:16:31;;;;;;;;;;;;;;;;;;5035716;28;19928;-71
2023/12/04 07:18:58;;;;;;;;;;;;;;;;;;5028682;28;20373;-71
2023/12/04 07:21:26;;;;;;;;;;;;;;;;;;5016655;28;19925;-71
2023/12/04 07:23:52;;;;;;;;;;;;;;;;;;5029779;28;20019;-71
2023/12/04 07:26:18;;;;;;;;;;;;;;;;;;5030368;28;19921;-71
2023/12/04 07:28:44;;;;;;;;;;;;;;;;;;5025837;28;20887;-70
2023/12/04 07:31:11;;;;;;;;;;;;;;;;;;5030323;28;19983;-70
2023/12/04 07:33:37;;;;;;;;;;;;;;;;;;5021318;28;19928;-68
2023/12/04 07:36:04;;;;;;;;;;;;;;;;;;5029893;28;19925;-70
2023/12/04 07:38:30;;;;;;;;;;;;;;;;;;5026354;28;20257;-71
2023/12/04 07:40:56;;;;;;;;;;;;;;;;;;5027398;28;20309;-71
2023/12/04 07:43:22;;;;;;;;;;;;;;;;;;5030684;28;20440;-71
2023/12/04 07:45:49;;;;;;;;;;;;;;;;;;5031158;28;19921;-71
2023/12/04 07:48:16;;;;;;;;;;;;;;;;;;5037757;28;19925;-71
2023/12/04 07:50:43;;;;;;;;;;;;;;;;;;5031003;28;19921;-71
2023/12/04 07:53:11;;;;;;;;;;;;;;;;;;5031036;28;19974;-71
2023/12/04 07:55:38;;;;;;;;;;;;;;;;;;5031093;28;19976;-71
2023/12/04 07:58:04;;;;;;;;;;;;;;;;;;5034231;28;19924;-71
2023/12/04 08:00:30;;;;;;;;;;;;;;;;;;5026453;28;19925;-71
2023/12/04 08:02:56;;;;;;;;;;;;;;;;;;5032754;28;20341;-71
2023/12/04 08:05:23;;;;;;;;;;;;;;;;;;5034477;28;20008;-71
2023/12/04 08:07:49;;;;;;;;;;;;;;;;;;5039124;28;19921;-71
2023/12/04 08:10:16;;;;;;;;;;;;;;;;;;5035894;28;20386;-71
2023/12/04 08:12:42;;;;;;;;;;;;;;;;;;5030942;28;19925;-71
2023/12/04 08:15:08;;;;;;;;;;;;;;;;;;5033269;28;19921;-71
2023/12/04 08:17:35;;;;;;;;;;;;;;;;;;5033681;28;19948;-71
2023/12/04 08:20:01;;;;;;;;;;;;;;;;;;5035449;28;19933;-72
2023/12/04 08:22:27;;;;;;;;;;;;;;;;;;5033022;28;19943;-71
2023/12/04 08:24:54;;;;;;;;;;;;;;;;;;5033763;28;20011;-71
2023/12/04 08:27:20;;;;;;;;;;;;;;;;;;5033686;28;19925;-71
2023/12/04 08:29:46;;;;;;;;;;;;;;;;;;5041234;28;19975;-71
2023/12/04 08:32:12;;;;;;;;;;;;;;;;;;5024287;28;20382;-72
2023/12/04 08:34:39;;;;;;;;;;;;;;;;;;5014102;28;19921;-73
2023/12/04 08:37:05;;;;;;;;;;;;;;;;;;5014187;28;19925;-73
2023/12/04 08:39:31;;;;;;;;;;;;;;;;;;5029653;28;19933;-73
2023/12/04 08:41:57;;;;;;;;;;;;;;;;;;5026737;28;20332;-73
2023/12/04 08:44:24;;;;;;;;;;;;;;;;;;5025991;28;19972;-73
2023/12/04 08:46:50;;;;;;;;;;;;;;;;;;5033301;28;19928;-73
2023/12/04 08:49:16;;;;;;;;;;;;;;;;;;5036309;28;20423;-73
2023/12/04 08:51:43;;;;;;;;;;;;;;;;;;5036508;28;19929;-74
2023/12/04 08:54:09;;;;;;;;;;;;;;;;;;5031645;28;20027;-73
2023/12/04 08:56:36;;;;;;;;;;;;;;;;;;5019020;28;19921;-73
2023/12/04 08:59:02;;;;;;;;;;;;;;;;;;5032561;28;19974;-73
2023/12/04 09:04:12;;;;;;;;;;;;;;;;;;5019183;28;19924;-73
2023/12/04 09:06:38;;;;;;;;;;;;;;;;;;5020401;28;19921;-73
2023/12/04 09:09:04;;;;;;;;;;;;;;;;;;5026545;28;19925;-73
2023/12/04 09:11:31;;;;;;;;;;;;;;;;;;5034597;28;19995;-74
2023/12/04 09:13:57;;;;;;;;;;;;;;;;;;5023385;28;19928;-73
2023/12/04 09:16:23;;;;;;;;;;;;;;;;;;5028777;28;19999;-74
2023/12/04 09:18:49;;;;;;;;;;;;;;;;;;5032578;28;19925;-73
2023/12/04 09:21:16;;;;;;;;;;;;;;;;;;5031662;28;19979;-74
2023/12/04 09:23:42;;;;;;;;;;;;;;;;;;5026385;28;19975;-74
2023/12/04 09:26:09;;;;;;;;;;;;;;;;;;5021929;28;20193;-74
2023/12/04 09:28:36;;;;;;;;;;;;;;;;;;5023571;28;19926;-74
2023/12/04 09:31:02;;;;;;;;;;;;;;;;;;5026545;28;19928;-74
2023/12/04 09:33:29;;;;;;;;;;;;;;;;;;5021095;28;19921;-73
2023/12/04 09:35:55;;;;;;;;;;;;;;;;;;5024888;28;20372;-73
2023/12/04 09:38:21;;;;;;;;;;;;;;;;;;5014920;28;19991;-75
2023/12/04 09:40:47;;;;;;;;;;;;;;;;;;5013153;28;19976;-73
2023/12/04 09:43:14;;;;;;;;;;;;;;;;;;5039285;28;19929;-74
2023/12/04 09:45:40;;;;;;;;;;;;;;;;;;5032339;28;19924;-74
2023/12/04 09:48:09;;;;;;;;;;;;;;;;;;5024156;28;19975;-75
2023/12/04 09:50:35;;;;;;;;;;;;;;;;;;5014326;28;19939;-74
2023/12/04 09:53:02;;;;;;;;;;;;;;;;;;5022917;28;19928;-74
2023/12/04 09:55:28;;;;;;;;;;;;;;;;;;5020302;28;19952;-74
2023/12/04 09:57:54;;;;;;;;;;;;;;;;;;5012039;28;19926;-73
2023/12/04 10:00:21;;;;;;;;;;;;;;;;;;5011501;28;20379;-75
2023/12/04 10:02:47;;;;;;;;;;;;;;;;;;5020647;28;19921;-74
2023/12/04 10:05:13;;;;;;;;;;;;;;;;;;5016889;28;19931;-74
2023/12/04 10:07:40;;;;;;;;;;;;;;;;;;5011947;28;20445;-74
2023/12/04 10:10:07;;;;;;;;;;;;;;;;;;5017193;28;19921;-74
2023/12/04 10:12:34;;;;;;;;;;;;;;;;;;5035744;28;19925;-74
2023/12/04 10:15:00;;;;;;;;;;;;;;;;;;5021074;28;19921;-75
2023/12/04 10:17:27;;;;;;;;;;;;;;;;;;5027894;28;19976;-74
2023/12/04 10:19:53;;;;;;;;;;;;;;;;;;5030242;28;20436;-74
2023/12/04 10:22:19;;;;;;;;;;;;;;;;;;5018948;28;19925;-73
2023/12/04 10:24:45;;;;;;;;;;;;;;;;;;5038636;28;19921;-74
2023/12/04 10:27:12;;;;;;;;;;;;;;;;;;5031229;28;19920;-77
2023/12/04 10:29:38;;;;;;;;;;;;;;;;;;5019612;28;20370;-74
2023/12/04 10:32:05;;;;;;;;;;;;;;;;;;5031595;28;19948;-74
2023/12/04 10:34:33;;;;;;;;;;;;;;;;;;5039000;28;19928;-74
2023/12/04 10:36:59;;;;;;;;;;;;;;;;;;5031690;28;19971;-73
2023/12/04 10:39:28;;;;;;;;;;;;;;;;;;5031679;28;19928;-74
2023/12/04 10:41:54;;;;;;;;;;;;;;;;;;5031637;28;19921;-74
2023/12/04 10:44:20;;;;;;;;;;;;;;;;;;5038866;28;19924;-73
2023/12/04 10:46:47;;;;;;;;;;;;;;;;;;5017382;28;20336;-73
2023/12/04 10:49:14;;;;;;;;;;;;;;;;;;5029516;28;20396;-74
2023/12/04 10:51:40;;;;;;;;;;;;;;;;;;5021751;28;20409;-74
2023/12/04 10:54:06;;;;;;;;;;;;;;;;;;5027962;28;20239;-74
2023/12/04 10:56:33;;;;;;;;;;;;;;;;;;5031048;28;19921;-74
2023/12/04 10:58:59;;;;;;;;;;;;;;;;;;5031369;28;19982;-74
2023/12/04 11:01:25;;;;;;;;;;;;;;;;;;5030522;28;19929;-74
2023/12/04 11:03:51;;;;;;;;;;;;;;;;;;5031211;28;20318;-74
2023/12/04 11:06:18;;;;;;;;;;;;;;;;;;5038431;28;19925;-74
2023/12/04 11:08:44;;;;;;;;;;;;;;;;;;5030940;28;19921;-74
2023/12/04 11:11:10;;;;;;;;;;;;;;;;;;5017543;28;19971;-74
2023/12/04 11:13:36;;;;;;;;;;;;;;;;;;5017271;28;20338;-74
2023/12/04 11:16:03;;;;;;;;;;;;;;;;;;5024030;28;19925;-74
2023/12/04 11:18:30;;;;;;;;;;;;;;;;;;5015731;28;19925;-74
2023/12/04 11:20:57;;;;;;;;;;;;;;;;;;5031015;28;19929;-74
2023/12/04 11:23:23;;;;;;;;;;;;;;;;;;5019192;28;19925;-74
2023/12/04 11:25:49;;;;;;;;;;;;;;;;;;5033879;28;19967;-73
2023/12/04 11:28:16;;;;;;;;;;;;;;;;;;5030060;28;19979;-74
2023/12/04 11:30:42;;;;;;;;;;;;;;;;;;5028739;28;19921;-73
2023/12/04 11:33:08;;;;;;;;;;;;;;;;;;5023631;28;19921;-74
2023/12/04 11:35:34;;;;;;;;;;;;;;;;;;5031337;28;19932;-73
2023/12/04 11:38:01;;;;;;;;;;;;;;;;;;5036312;28;19974;-74
2023/12/04 11:40:27;;;;;;;;;;;;;;;;;;5030210;28;19983;-74
2023/12/04 11:42:53;;;;;;;;;;;;;;;;;;5022503;28;19974;-74
2023/12/04 11:45:20;;;;;;;;;;;;;;;;;;5023051;28;19927;-75
2023/12/04 11:47:46;;;;;;;;;;;;;;;;;;5034864;28;19968;-74
2023/12/04 11:50:12;;;;;;;;;;;;;;;;;;5031889;28;19921;-70
2023/12/04 11:52:39;;;;;;;;;;;;;;;;;;5020305;28;19921;-73
2023/12/04 11:55:05;;;;;;;;;;;;;;;;;;5033930;28;19983;-74
2023/12/04 11:57:31;;;;;;;;;;;;;;;;;;5041349;28;19928;-74
2023/12/04 11:59:58;;;;;;;;;;;;;;;;;;5032860;28;19925;-73
2023/12/04 12:02:25;;;;;;;;;;;;;;;;;;5017994;28;20022;-74
2023/12/04 12:04:51;;;;;;;;;;;;;;;;;;5025077;28;19995;-74
2023/12/04 12:07:17;;;;;;;;;;;;;;;;;;5027995;28;20566;-74
2023/12/04 12:09:43;;;;;;;;;;;;;;;;;;5034175;28;19921;-74
2023/12/04 12:12:10;;;;;;;;;;;;;;;;;;5026384;28;19925;-74
2023/12/04 12:14:36;;;;;;;;;;;;;;;;;;5027980;28;19925;-74
2023/12/04 12:17:02;;;;;;;;;;;;;;;;;;5024402;28;19921;-74
2023/12/04 12:19:28;;;;;;;;;;;;;;;;;;5039477;28;19929;-73
2023/12/04 12:21:55;;;;;;;;;;;;;;;;;;5017175;28;19933;-74
2023/12/04 12:24:21;;;;;;;;;;;;;;;;;;5017474;28;20012;-74
2023/12/04 12:26:47;;;;;;;;;;;;;;;;;;5026840;28;19925;-75
2023/12/04 12:29:14;;;;;;;;;;;;;;;;;;5034311;28;19986;-74
2023/12/04 12:31:40;;;;;;;;;;;;;;;;;;5032691;28;20459;-74
2023/12/04 12:34:06;;;;;;;;;;;;;;;;;;5017206;28;19976;-74
2023/12/04 12:36:33;;;;;;;;;;;;;;;;;;5028461;28;19921;-74
2023/12/04 12:39:00;;;;;;;;;;;;;;;;;;5027005;28;19921;-73
2023/12/04 12:41:26;;;;;;;;;;;;;;;;;;5033366;28;20458;-74
2023/12/04 12:43:52;;;;;;;;;;;;;;;;;;5016684;28;19921;-74
2023/12/04 12:46:18;;;;;;;;;;;;;;;;;;5032523;28;19975;-73
2023/12/04 12:48:45;;;;;;;;;;;;;;;;;;5038243;28;20344;-74
2023/12/04 12:51:11;;;;;;;;;;;;;;;;;;5031290;28;19921;-74
2023/12/04 12:53:38;;;;;;;;;;;;;;;;;;5021239;28;20016;-74
2023/12/04 12:56:04;;;;;;;;;;;;;;;;;;5023302;28;19921;-74
2023/12/04 12:58:31;;;;;;;;;;;;;;;;;;5024766;28;19924;-74
2023/12/04 13:00:57;;;;;;;;;;;;;;;;;;5026563;28;19929;-74
2023/12/04 13:03:23;;;;;;;;;;;;;;;;;;5021779;28;19974;-73
2023/12/04 13:05:50;;;;;;;;;;;;;;;;;;5022751;28;20334;-73
2023/12/04 13:08:16;;;;;;;;;;;;;;;;;;5021541;28;19933;-74
2023/12/04 13:10:42;;;;;;;;;;;;;;;;;;5028280;28;19921;-73
2023/12/04 13:13:08;;;;;;;;;;;;;;;;;;5023239;28;19975;-73
2023/12/04 13:15:35;;;;;;;;;;;;;;;;;;5018123;28;19929;-73
2023/12/04 13:18:02;;;;;;;;;;;;;;;;;;5020191;28;20279;-72
2023/12/04 13:20:28;;;;;;;;;;;;;;;;;;5020965;28;19922;-72
2023/12/04 13:22:56;;;;;;;;;;;;;;;;;;5020713;28;19967;-72
2023/12/04 13:25:22;;;;;;;;;;;;;;;;;;5022647;28;19921;-71
2023/12/04 13:27:49;;;;;;;;;;;;;;;;;;5021167;28;19940;-72
2023/12/04 13:30:15;;;;;;;;;;;;;;;;;;5024030;28;19925;-72
2023/12/04 13:32:41;;;;;;;;;;;;;;;;;;5024372;28;19929;-72
2023/12/04 13:35:08;;;;;;;;;;;;;;;;;;5024948;28;19921;-72
2023/12/04 13:37:36;;;;;;;;;;;;;;;;;;5023012;28;19928;-73
2023/12/04 13:40:06;;;;;;;;;;;;;;;;;;5020256;28;19921;-72
2023/12/04 13:45:16;;;;;;;;;;;;;;;;;;5022768;28;20032;-72
2023/12/04 13:47:43;;;;;;;;;;;;;;;;;;5019999;28;20386;-72
2023/12/04 13:50:09;;;;;;;;;;;;;;;;;;5021149;28;19926;-72
2023/12/04 13:52:36;;;;;;;;;;;;;;;;;;5026270;28;20416;-72
2023/12/04 13:55:10;;;;;;;;;;;;;;;;;;5024930;28;19925;-71
2023/12/04 13:57:44;;;;;;;;;;;;;;;;;;5016019;28;19929;-72
2023/12/04 14:00:10;;;;;;;;;;;;;;;;;;5021925;28;19924;-72
2023/12/04 14:02:37;;;;;;;;;;;;;;;;;;5024377;28;19979;-72
2023/12/04 14:05:03;;;;;;;;;;;;;;;;;;5020863;28;20015;-71
2023/12/04 14:07:30;;;;;;;;;;;;;;;;;;5021283;28;20282;-71
2023/12/04 14:09:56;;;;;;;;;;;;;;;;;;5020106;28;19971;-71
2023/12/04 14:12:22;;;;;;;;;;;;;;;;;;5024474;28;19925;-71
2023/12/04 14:14:49;;;;;;;;;;;;;;;;;;5017598;28;19921;-71
2023/12/04 14:17:15;;;;;;;;;;;;;;;;;;5021869;28;19924;-71
2023/12/04 14:19:41;;;;;;;;;;;;;;;;;;5017508;28;19921;-71
2023/12/04 14:22:08;;;;;;;;;;;;;;;;;;5032235;28;19921;-71
2023/12/04 14:24:35;;;;;;;;;;;;;;;;;;5031204;28;20313;-72
2023/12/04 14:27:02;;;;;;;;;;;;;;;;;;5024011;28;19929;-72
2023/12/04 14:31:32;;;;;;;;;;;;;;;;;;5134310;27;20367;-74
2023/12/04 14:33:58;;;;;;;;;;;;;;;;;;5120936;28;19924;-73
2023/12/04 14:36:24;;;;;;;;;;;;;;;;;;5129281;28;19984;-74
2023/12/04 14:38:51;;;;;;;;;;;;;;;;;;5129373;28;20001;-74
2023/12/04 14:41:18;;;;;;;;;;;;;;;;;;5129572;28;20009;-74
2023/12/04 14:43:44;;;;;;;;;;;;;;;;;;5125854;28;20334;-74
2023/12/04 14:46:10;;;;;;;;;;;;;;;;;;5127682;28;19927;-74
2023/12/04 14:48:36;;;;;;;;;;;;;;;;;;5129205;28;19937;-74
2023/12/04 14:51:03;;;;;;;;;;;;;;;;;;5129126;28;19984;-74
2023/12/04 14:53:40;;;;;;;;;;;;;;;;;;5128700;28;19927;-74
2023/12/04 15:07:34;;;;;;;;;;;;;;;;;;5128966;28;19964;-74
2023/12/04 15:13:07;;;;;;;;;;;;;;;;;;5079363;28;19931;-74
2023/12/04 15:15:47;;;;;;;;;;;;;;;;;;5088655;28;19924;-74
2023/12/04 15:18:36;;;;;;;;;;;;;;;;;;5095169;28;19924;-73
2023/12/04 15:21:01;;;;;;;;;;;;;;;;;;5085370;28;19925;-75
2023/12/04 15:23:28;;;;;;;;;;;;;;;;;;5085580;28;20023;-73
2023/12/04 15:25:53;;;;;;;;;;;;;;;;;;5080597;28;20371;-74
2023/12/04 15:28:19;;;;;;;;;;;;;;;;;;5085035;28;19928;-73
2023/12/04 15:30:45;;;;;;;;;;;;;;;;;;5085525;28;19925;-73
2023/12/04 15:33:11;;;;;;;;;;;;;;;;;;5085447;28;19978;-74
2023/12/04 15:35:37;;;;;;;;;;;;;;;;;;5082414;28;19947;-73
2023/12/04 15:38:03;;;;;;;;;;;;;;;;;;5085667;28;20487;-74
2023/12/04 15:40:29;;;;;;;;;;;;;;;;;;5075392;28;20393;-74
2023/12/04 15:42:56;;;;;;;;;;;;;;;;;;5070351;28;19932;-74
2023/12/04 15:45:22;;;;;;;;;;;;;;;;;;5068586;28;19932;-74
2023/12/04 15:47:47;;;;;;;;;;;;;;;;;;5074301;28;19985;-73
2023/12/04 15:50:13;;;;;;;;;;;;;;;;;;5093855;28;19931;-74
2023/12/04 15:52:40;;;;;;;;;;;;;;;;;;5093746;28;19982;-73
2023/12/04 15:55:07;;;;;;;;;;;;;;;;;;5093636;28;19924;-73
2023/12/04 15:57:35;;;;;;;;;;;;;;;;;;5088407;28;19986;-73
2023/12/04 16:00:02;;;;;;;;;;;;;;;;;;5090547;28;19924;-74
2023/12/04 16:02:28;;;;;;;;;;;;;;;;;;5093087;28;19985;-74
2023/12/04 16:04:53;;;;;;;;;;;;;;;;;;5091161;28;20057;-74
2023/12/04 16:07:20;;;;;;;;;;;;;;;;;;5088636;28;20047;-74
2023/12/04 16:09:46;;;;;;;;;;;;;;;;;;5090961;28;19989;-73
2023/12/04 16:12:12;;;;;;;;;;;;;;;;;;5092323;28;20049;-73
2023/12/04 16:14:39;;;;;;;;;;;;;;;;;;5090452;28;19928;-74
2023/12/04 16:17:05;;;;;;;;;;;;;;;;;;5083099;28;19981;-74
2023/12/04 16:19:33;;;;;;;;;;;;;;;;;;5091675;28;19932;-74
2023/12/04 16:22:00;;;;;;;;;;;;;;;;;;5091757;28;20407;-74
2023/12/04 16:24:26;;;;;;;;;;;;;;;;;;5086373;28;19930;-73
2023/12/04 16:26:54;;;;;;;;;;;;;;;;;;5085158;28;20010;-74
2023/12/04 16:29:21;;;;;;;;;;;;;;;;;;5087153;28;19931;-75
2023/12/04 16:31:47;;;;;;;;;;;;;;;;;;5104246;28;19967;-73
2023/12/04 16:34:14;;;;;;;;;;;;;;;;;;5101394;28;20015;-73
2023/12/04 16:36:40;;;;;;;;;;;;;;;;;;5112998;28;20449;-74
2023/12/04 16:39:06;;;;;;;;;;;;;;;;;;5109575;28;19931;-73
2023/12/04 16:41:32;;;;;;;;;;;;;;;;;;5102283;28;19931;-74
2023/12/04 16:43:59;;;;;;;;;;;;;;;;;;5107709;28;20395;-73
2023/12/04 16:46:25;;;;;;;;;;;;;;;;;;5112759;28;19932;-74
2023/12/04 16:48:51;;;;;;;;;;;;;;;;;;5112005;28;19928;-74
2023/12/04 16:51:17;;;;;;;;;;;;;;;;;;5112654;28;20341;-74
2023/12/04 16:53:44;;;;;;;;;;;;;;;;;;5111979;28;20025;-74
2023/12/04 16:56:10;;;;;;;;;;;;;;;;;;5112787;28;20475;-74
2023/12/04 16:58:37;;;;;;;;;;;;;;;;;;5112040;28;19932;-74
2023/12/04 17:01:03;;;;;;;;;;;;;;;;;;5103672;28;19924;-74
2023/12/04 17:03:30;;;;;;;;;;;;;;;;;;5113087;28;19932;-74